Flight Track Log - Related Links

Times and Time Zones

All times are in EDT time to prevent confusion due to time zone crossing. See the SWA199 flight status page for this flight to view local times or setup timezone preferences in your user account.

Time Position Orientation Groundspeed Altitude Reporting Facility
EDT Latitude Longitude Course Direction KTS MPH feet Rate Location/Type
Tue 05:15:28 PM 42.3500 -71.0167 104° East 144 166 1,400  Level Boston TRACON
Tue 05:17:15 PM 42.3272 -70.8900 91° East 256 295 5,400 2,515 Climbing Boston Center
Tue 05:18:15 PM 42.3256 -70.7719 138° Southeast 262 302 8,400 2,900 Climbing Boston Center
Tue 05:19:15 PM 42.2683 -70.7033 218° Southwest 248 285 11,200 2,550 Climbing Boston Center
Tue 05:20:15 PM 42.2089 -70.7667 260° West 201 231 13,500 1,500 Climbing Boston Center
Tue 05:21:15 PM 42.1919 -70.8906 258° West 239 275 14,200 1,550 Climbing Boston Center
Tue 05:22:15 PM 42.1706 -71.0283 263° West 319 367 16,600 2,650 Climbing Boston Center
Tue 05:23:15 PM 42.1597 -71.1461 259° West 350 403 19,500 2,350 Climbing Boston Center
Tue 05:24:15 PM 42.1403 -71.2781 259° West 362 417 21,300 1,800 Climbing Boston Center
Tue 05:25:15 PM 42.1208 -71.4186 259° West 374 430 23,100 1,950 Climbing Boston Center
Tue 05:26:15 PM 42.0992 -71.5728 259° West 384 442 25,200 1,750 Climbing Boston Center
Tue 05:27:15 PM 42.0772 -71.7242 259° West 394 453 26,600 1,450 Climbing Boston Center
Tue 05:28:15 PM 42.0550 -71.8725 258° West 399 459 28,100 1,450 Climbing Boston Center
Tue 05:29:15 PM 42.0308 -72.0236 259° West 416 479 29,500 1,250 Climbing Boston Center
Tue 05:30:15 PM 42.0083 -72.1803 253° West 421 484 30,600 1,300 Climbing Boston Center
Tue 05:31:15 PM 41.9753 -72.3283 233° Southwest 421 484 32,100 1,400 Climbing Boston Center
Tue 05:32:15 PM 41.9086 -72.4486 234° Southwest 404 465 33,400 1,000 Climbing Boston Center
Tue 05:33:15 PM 41.8564 -72.5461 234° Southwest 404 465 34,100 300 Climbing Boston Center
Tue 05:34:15 PM 41.7833 -72.6794 234° Southwest 409 471 34,000 -50 Descending Boston Center
Tue 05:35:15 PM 41.7161 -72.8017 233° Southwest 409 471 34,000  Level Boston Center
Tue 05:36:15 PM 41.6469 -72.9236 234° Southwest 409 471 34,000  Level Boston Center
Tue 05:37:15 PM 41.5797 -73.0478 234° Southwest 415 478 34,000  Level Boston Center
Tue 05:39:17 PM 41.4428 -73.2981 233° Southwest 415 478 34,000  Level New York Center
Tue 05:40:18 PM 41.3714 -73.4225 233° Southwest 421 484 34,000  Level New York Center
Tue 05:41:18 PM 41.3019 -73.5439 232° Southwest 421 484 34,000  Level New York Center
Tue 05:42:18 PM 41.2303 -73.6678 232° Southwest 421 484 34,000  Level New York Center
Tue 05:43:16 PM 41.1583 -73.7889 231° Southwest 427 491 34,000  Level New York Center
Tue 05:44:17 PM 41.0844 -73.9119 232° Southwest 432 497 34,000  Level New York Center
Tue 05:45:18 PM 41.0122 -74.0353 231° Southwest 432 497 34,000 -99 Level New York Center
Tue 05:46:18 PM 40.9381 -74.1553 233° Southwest 432 497 33,800 -650 Descending New York Center
Tue 05:47:18 PM 40.8611 -74.2914 231° Southwest 432 497 32,700 -1,068 Descending New York Center
Tue 05:48:16 PM 40.7867 -74.4108 231° Southwest 432 497 31,700 -1,059 Descending New York Center
Tue 05:49:17 PM 40.7142 -74.5300 232° Southwest 432 497 30,600 -1,033 Descending New York Center
Tue 05:50:18 PM 40.6439 -74.6467 230° Southwest 432 497 29,600 -992 Descending New York Center
Tue 05:51:18 PM 40.5689 -74.7653 226° Southwest 427 491 28,600 -900 Descending New York Center
Tue 05:52:18 PM 40.4947 -74.8672 227° Southwest 432 497 27,800 -966 Descending New York Center
Tue 05:53:16 PM 40.4069 -74.9903 228° Southwest 425 489 26,700 -1,008 Descending New York Center
Tue 05:54:17 PM 40.3389 -75.0894 226° Southwest 425 489 25,800 -984 Descending New York Center
Tue 05:55:18 PM 40.2508 -75.2092 227° Southwest 419 482 24,700 -1,041 Descending New York Center
Tue 05:56:18 PM 40.1806 -75.3081 228° Southwest 405 466 23,700 -1,026 Descending New York Center
Tue 05:57:15 PM 40.1100 -75.4092 227° Southwest 395 455 22,700 -1,017 Descending New York Center
Tue 05:58:16 PM 40.0392 -75.5075 228° Southwest 390 449 21,700 -942 Descending New York Center
Tue 05:59:16 PM 39.9683 -75.6083 227° Southwest 384 442 20,800 -942 Descending New York Center
Tue 06:00:17 PM 39.8975 -75.7089 236° Southwest 384 442 19,800 -942 Descending New York Center
Tue 06:01:17 PM 39.8475 -75.8056 236° Southwest 378 435 18,900 -1,488 Descending New York Center
Tue 06:02:18 PM 39.7931 -75.9125 235° Southwest 363 418 16,800 -2,130 Descending New York Center
Tue 06:04:37 PM 39.6667 -76.1500 224° Southwest 305 351 11,800 -1,873 Descending Potomac TRACON
Tue 06:05:43 PM 39.6000 -76.2333 218° Southwest 269 310 10,400 -1,450 Descending Potomac TRACON
Tue 06:06:37 PM 39.5500 -76.2833 218° Southwest 270 311 8,900 -1,500 Descending Potomac TRACON
Tue 06:07:43 PM 39.4833 -76.3500 218° Southwest 265 305 7,400 -1,228 Descending Potomac TRACON
Tue 06:08:44 PM 39.4333 -76.4000 201° Southwest 258 297 6,300 -1,043 Descending Potomac TRACON
Tue 06:09:38 PM 39.3667 -76.4333 201° Southwest 257 296 5,400 -1,050 Descending Potomac TRACON
Tue 06:10:44 PM 39.3000 -76.4667 191° South 237 273 4,200 -1,000 Descending Potomac TRACON
Tue 06:11:44 PM 39.2333 -76.4833 191° South 236 272 3,300 -595 Descending Potomac TRACON
Tue 06:12:45 PM 39.1667 -76.5000 207° Southwest 210 242 3,000 -661 Descending Potomac TRACON
Tue 06:13:51 PM 39.1167 -76.5333 252° West 184 212 1,900 -571 Descending Potomac TRACON
Tue 06:14:51 PM 39.1000 -76.6000 252° West 179 206 1,800 -100 Descending Potomac TRACON

Login

Don't have an account? Register now (free) for customized features, flight alerts, and more!